sensor_id;sensor_type;location;lat;lon;timestamp;P1;durP1;ratioP1;P2;durP2;ratioP2
22843;SDS011;11588;51.178;4.852;2023-02-28T00:01:11;15.13;;;10.10;;
22843;SDS011;11588;51.178;4.852;2023-02-28T00:03:37;12.40;;;9.65;;
22843;SDS011;11588;51.178;4.852;2023-02-28T00:06:04;13.73;;;10.70;;
22843;SDS011;11588;51.178;4.852;2023-02-28T00:08:31;13.00;;;9.98;;
22843;SDS011;11588;51.178;4.852;2023-02-28T00:11:02;15.77;;;11.15;;
22843;SDS011;11588;51.178;4.852;2023-02-28T00:13:29;20.70;;;11.10;;
22843;SDS011;11588;51.178;4.852;2023-02-28T00:15:59;15.70;;;11.32;;
22843;SDS011;11588;51.178;4.852;2023-02-28T00:18:29;14.52;;;10.35;;
22843;SDS011;11588;51.178;4.852;2023-02-28T00:20:56;16.95;;;11.27;;
22843;SDS011;11588;51.178;4.852;2023-02-28T00:23:23;16.25;;;10.82;;
22843;SDS011;11588;51.178;4.852;2023-02-28T00:25:49;19.30;;;11.32;;
22843;SDS011;11588;51.178;4.852;2023-02-28T00:28:15;14.85;;;10.60;;
22843;SDS011;11588;51.178;4.852;2023-02-28T00:30:42;15.65;;;11.02;;
22843;SDS011;11588;51.178;4.852;2023-02-28T00:33:11;19.58;;;11.77;;
22843;SDS011;11588;51.178;4.852;2023-02-28T00:35:37;16.83;;;11.30;;
22843;SDS011;11588;51.178;4.852;2023-02-28T00:38:06;16.27;;;10.45;;
22843;SDS011;11588;51.178;4.852;2023-02-28T00:40:32;14.57;;;11.15;;
22843;SDS011;11588;51.178;4.852;2023-02-28T00:42:58;16.25;;;10.60;;
22843;SDS011;11588;51.178;4.852;2023-02-28T00:45:24;17.90;;;11.25;;
22843;SDS011;11588;51.178;4.852;2023-02-28T00:47:51;17.63;;;11.68;;
22843;SDS011;11588;51.178;4.852;2023-02-28T00:50:18;15.77;;;11.35;;
22843;SDS011;11588;51.178;4.852;2023-02-28T00:52:46;14.73;;;10.77;;
22843;SDS011;11588;51.178;4.852;2023-02-28T00:55:12;16.98;;;11.23;;
22843;SDS011;11588;51.178;4.852;2023-02-28T00:57:39;15.10;;;10.60;;
22843;SDS011;11588;51.178;4.852;2023-02-28T01:00:07;16.73;;;11.07;;
22843;SDS011;11588;51.178;4.852;2023-02-28T01:02:34;13.93;;;10.68;;
22843;SDS011;11588;51.178;4.852;2023-02-28T01:05:00;13.52;;;11.05;;
22843;SDS011;11588;51.178;4.852;2023-02-28T01:07:26;18.60;;;11.02;;
22843;SDS011;11588;51.178;4.852;2023-02-28T01:09:53;17.88;;;11.45;;
22843;SDS011;11588;51.178;4.852;2023-02-28T01:12:19;15.70;;;10.90;;
22843;SDS011;11588;51.178;4.852;2023-02-28T01:14:45;16.65;;;10.85;;
22843;SDS011;11588;51.178;4.852;2023-02-28T01:17:11;16.33;;;11.55;;
22843;SDS011;11588;51.178;4.852;2023-02-28T01:19:37;14.70;;;10.25;;
22843;SDS011;11588;51.178;4.852;2023-02-28T01:22:04;14.25;;;11.15;;
22843;SDS011;11588;51.178;4.852;2023-02-28T01:24:31;17.98;;;10.88;;
22843;SDS011;11588;51.178;4.852;2023-02-28T01:26:57;18.58;;;10.85;;
22843;SDS011;11588;51.178;4.852;2023-02-28T01:29:26;17.95;;;11.60;;
22843;SDS011;11588;51.178;4.852;2023-02-28T01:31:52;16.27;;;10.38;;
22843;SDS011;11588;51.178;4.852;2023-02-28T01:34:21;14.52;;;10.65;;
22843;SDS011;11588;51.178;4.852;2023-02-28T01:36:47;12.63;;;9.63;;
22843;SDS011;11588;51.178;4.852;2023-02-28T01:39:13;13.85;;;10.02;;
22843;SDS011;11588;51.178;4.852;2023-02-28T01:41:39;15.60;;;9.02;;
22843;SDS011;11588;51.178;4.852;2023-02-28T01:46:37;31.17;;;14.93;;
22843;SDS011;11588;51.178;4.852;2023-02-28T01:49:04;24.83;;;14.98;;
22843;SDS011;11588;51.178;4.852;2023-02-28T01:54:05;15.63;;;10.65;;
22843;SDS011;11588;51.178;4.852;2023-02-28T01:56:38;15.27;;;10.95;;
22843;SDS011;11588;51.178;4.852;2023-02-28T01:59:05;14.55;;;10.40;;
22843;SDS011;11588;51.178;4.852;2023-02-28T02:01:30;12.95;;;9.88;;
22843;SDS011;11588;51.178;4.852;2023-02-28T02:03:58;15.00;;;10.02;;
22843;SDS011;11588;51.178;4.852;2023-02-28T02:06:29;13.80;;;9.82;;
22843;SDS011;11588;51.178;4.852;2023-02-28T02:08:56;13.30;;;9.85;;
22843;SDS011;11588;51.178;4.852;2023-02-28T02:11:23;15.88;;;10.32;;
22843;SDS011;11588;51.178;4.852;2023-02-28T02:16:32;15.82;;;10.05;;
22843;SDS011;11588;51.178;4.852;2023-02-28T02:19:08;16.50;;;10.27;;
22843;SDS011;11588;51.178;4.852;2023-02-28T02:21:47;14.48;;;10.25;;
22843;SDS011;11588;51.178;4.852;2023-02-28T02:30:02;15.30;;;10.50;;
22843;SDS011;11588;51.178;4.852;2023-02-28T02:32:41;15.40;;;9.55;;
22843;SDS011;11588;51.178;4.852;2023-02-28T02:35:13;15.27;;;10.50;;
22843;SDS011;11588;51.178;4.852;2023-02-28T02:37:42;15.30;;;10.05;;
22843;SDS011;11588;51.178;4.852;2023-02-28T02:40:13;14.43;;;10.30;;
22843;SDS011;11588;51.178;4.852;2023-02-28T02:45:27;13.73;;;10.57;;
22843;SDS011;11588;51.178;4.852;2023-02-28T02:47:55;15.20;;;9.75;;
22843;SDS011;11588;51.178;4.852;2023-02-28T02:50:24;14.60;;;9.70;;
22843;SDS011;11588;51.178;4.852;2023-02-28T02:52:54;15.50;;;10.38;;
22843;SDS011;11588;51.178;4.852;2023-02-28T02:55:21;14.13;;;9.90;;
22843;SDS011;11588;51.178;4.852;2023-02-28T02:57:54;13.52;;;10.80;;
22843;SDS011;11588;51.178;4.852;2023-02-28T03:00:23;13.45;;;10.15;;
22843;SDS011;11588;51.178;4.852;2023-02-28T03:02:51;17.33;;;10.15;;
22843;SDS011;11588;51.178;4.852;2023-02-28T03:05:19;14.10;;;10.13;;
22843;SDS011;11588;51.178;4.852;2023-02-28T03:07:47;17.13;;;10.38;;
22843;SDS011;11588;51.178;4.852;2023-02-28T03:10:26;12.25;;;10.10;;
22843;SDS011;11588;51.178;4.852;2023-02-28T03:12:58;15.95;;;9.60;;
22843;SDS011;11588;51.178;4.852;2023-02-28T03:15:31;12.27;;;9.70;;
22843;SDS011;11588;51.178;4.852;2023-02-28T03:18:01;12.52;;;9.85;;
22843;SDS011;11588;51.178;4.852;2023-02-28T03:20:34;15.35;;;10.02;;
22843;SDS011;11588;51.178;4.852;2023-02-28T03:23:13;15.32;;;10.50;;
22843;SDS011;11588;51.178;4.852;2023-02-28T03:25:45;12.77;;;10.40;;
22843;SDS011;11588;51.178;4.852;2023-02-28T03:31:10;12.25;;;9.23;;
22843;SDS011;11588;51.178;4.852;2023-02-28T03:33:39;15.93;;;9.65;;
22843;SDS011;11588;51.178;4.852;2023-02-28T03:36:08;12.40;;;9.63;;
22843;SDS011;11588;51.178;4.852;2023-02-28T03:38:37;12.30;;;9.30;;
22843;SDS011;11588;51.178;4.852;2023-02-28T03:43:53;13.40;;;9.60;;
22843;SDS011;11588;51.178;4.852;2023-02-28T03:46:21;14.30;;;9.63;;
22843;SDS011;11588;51.178;4.852;2023-02-28T03:48:53;12.50;;;9.98;;
22843;SDS011;11588;51.178;4.852;2023-02-28T03:51:20;11.63;;;9.27;;
22843;SDS011;11588;51.178;4.852;2023-02-28T03:53:52;11.82;;;9.30;;
22843;SDS011;11588;51.178;4.852;2023-02-28T03:56:20;12.05;;;9.20;;
22843;SDS011;11588;51.178;4.852;2023-02-28T04:02:03;13.65;;;9.05;;
22843;SDS011;11588;51.178;4.852;2023-02-28T04:04:10;12.70;;;8.90;;
22843;SDS011;11588;51.178;4.852;2023-02-28T04:06:37;12.32;;;9.13;;
22843;SDS011;11588;51.178;4.852;2023-02-28T04:09:06;15.05;;;9.73;;
22843;SDS011;11588;51.178;4.852;2023-02-28T04:11:35;13.55;;;9.43;;
22843;SDS011;11588;51.178;4.852;2023-02-28T04:14:03;14.80;;;9.70;;
22843;SDS011;11588;51.178;4.852;2023-02-28T04:16:30;14.63;;;9.13;;
22843;SDS011;11588;51.178;4.852;2023-02-28T04:18:57;12.27;;;8.93;;
22843;SDS011;11588;51.178;4.852;2023-02-28T04:21:28;12.27;;;9.38;;
22843;SDS011;11588;51.178;4.852;2023-02-28T04:23:55;13.02;;;8.88;;
22843;SDS011;11588;51.178;4.852;2023-02-28T04:26:21;12.10;;;9.43;;
22843;SDS011;11588;51.178;4.852;2023-02-28T04:28:48;12.70;;;8.68;;
22843;SDS011;11588;51.178;4.852;2023-02-28T04:31:14;13.55;;;9.35;;
22843;SDS011;11588;51.178;4.852;2023-02-28T04:33:42;11.38;;;7.97;;
22843;SDS011;11588;51.178;4.852;2023-02-28T04:36:13;10.88;;;9.27;;
22843;SDS011;11588;51.178;4.852;2023-02-28T04:38:40;13.77;;;9.40;;
22843;SDS011;11588;51.178;4.852;2023-02-28T04:41:07;11.82;;;8.95;;
22843;SDS011;11588;51.178;4.852;2023-02-28T04:43:35;10.80;;;8.75;;
22843;SDS011;11588;51.178;4.852;2023-02-28T04:46:02;12.82;;;8.88;;
22843;SDS011;11588;51.178;4.852;2023-02-28T04:48:31;14.65;;;9.32;;
22843;SDS011;11588;51.178;4.852;2023-02-28T04:51:01;13.98;;;8.10;;
22843;SDS011;11588;51.178;4.852;2023-02-28T04:53:30;11.77;;;8.73;;
22843;SDS011;11588;51.178;4.852;2023-02-28T04:55:57;12.93;;;9.20;;
22843;SDS011;11588;51.178;4.852;2023-02-28T04:58:25;11.70;;;8.48;;
22843;SDS011;11588;51.178;4.852;2023-02-28T05:00:51;14.48;;;8.55;;
22843;SDS011;11588;51.178;4.852;2023-02-28T05:03:17;12.65;;;8.93;;
22843;SDS011;11588;51.178;4.852;2023-02-28T05:05:44;12.23;;;8.88;;
22843;SDS011;11588;51.178;4.852;2023-02-28T05:08:10;11.35;;;8.70;;
22843;SDS011;11588;51.178;4.852;2023-02-28T05:10:36;12.60;;;8.73;;
22843;SDS011;11588;51.178;4.852;2023-02-28T05:13:02;12.95;;;9.32;;
22843;SDS011;11588;51.178;4.852;2023-02-28T05:15:29;21.48;;;11.63;;
22843;SDS011;11588;51.178;4.852;2023-02-28T05:17:55;16.25;;;10.40;;
22843;SDS011;11588;51.178;4.852;2023-02-28T05:20:22;12.75;;;9.38;;
22843;SDS011;11588;51.178;4.852;2023-02-28T05:22:49;12.32;;;9.40;;
22843;SDS011;11588;51.178;4.852;2023-02-28T05:25:16;11.25;;;8.20;;
22843;SDS011;11588;51.178;4.852;2023-02-28T05:27:43;11.23;;;8.50;;
22843;SDS011;11588;51.178;4.852;2023-02-28T05:30:10;13.13;;;8.93;;
22843;SDS011;11588;51.178;4.852;2023-02-28T05:32:36;12.65;;;8.80;;
22843;SDS011;11588;51.178;4.852;2023-02-28T05:35:03;12.07;;;8.48;;
22843;SDS011;11588;51.178;4.852;2023-02-28T05:37:29;12.77;;;8.55;;
22843;SDS011;11588;51.178;4.852;2023-02-28T05:39:55;12.90;;;7.32;;
22843;SDS011;11588;51.178;4.852;2023-02-28T05:42:22;10.82;;;8.15;;
22843;SDS011;11588;51.178;4.852;2023-02-28T05:44:48;15.90;;;7.85;;
22843;SDS011;11588;51.178;4.852;2023-02-28T05:47:14;9.23;;;7.45;;
22843;SDS011;11588;51.178;4.852;2023-02-28T05:49:41;12.20;;;7.97;;
22843;SDS011;11588;51.178;4.852;2023-02-28T05:52:08;12.38;;;7.47;;
22843;SDS011;11588;51.178;4.852;2023-02-28T05:54:34;12.20;;;7.65;;
22843;SDS011;11588;51.178;4.852;2023-02-28T05:57:00;10.43;;;7.20;;
22843;SDS011;11588;51.178;4.852;2023-02-28T05:59:26;11.80;;;8.60;;
22843;SDS011;11588;51.178;4.852;2023-02-28T06:01:58;10.90;;;7.53;;
22843;SDS011;11588;51.178;4.852;2023-02-28T06:04:26;12.40;;;7.72;;
22843;SDS011;11588;51.178;4.852;2023-02-28T06:06:54;12.63;;;8.27;;
22843;SDS011;11588;51.178;4.852;2023-02-28T06:09:23;13.73;;;8.00;;
22843;SDS011;11588;51.178;4.852;2023-02-28T06:11:49;10.88;;;8.00;;
22843;SDS011;11588;51.178;4.852;2023-02-28T06:14:17;13.10;;;8.45;;
22843;SDS011;11588;51.178;4.852;2023-02-28T06:16:44;13.10;;;7.68;;
22843;SDS011;11588;51.178;4.852;2023-02-28T06:19:12;13.35;;;8.50;;
22843;SDS011;11588;51.178;4.852;2023-02-28T06:21:39;11.30;;;8.00;;
22843;SDS011;11588;51.178;4.852;2023-02-28T06:24:06;13.38;;;8.75;;
22843;SDS011;11588;51.178;4.852;2023-02-28T06:26:32;12.63;;;8.02;;
22843;SDS011;11588;51.178;4.852;2023-02-28T06:28:59;11.30;;;8.77;;
22843;SDS011;11588;51.178;4.852;2023-02-28T06:31:26;12.38;;;8.38;;
22843;SDS011;11588;51.178;4.852;2023-02-28T06:33:54;15.73;;;8.27;;
22843;SDS011;11588;51.178;4.852;2023-02-28T06:36:21;11.27;;;8.20;;
22843;SDS011;11588;51.178;4.852;2023-02-28T06:38:47;13.50;;;8.70;;
22843;SDS011;11588;51.178;4.852;2023-02-28T06:41:21;12.50;;;8.80;;
22843;SDS011;11588;51.178;4.852;2023-02-28T06:43:47;13.32;;;9.27;;
22843;SDS011;11588;51.178;4.852;2023-02-28T06:46:13;12.60;;;8.23;;
22843;SDS011;11588;51.178;4.852;2023-02-28T06:48:40;14.38;;;8.77;;
22843;SDS011;11588;51.178;4.852;2023-02-28T06:51:10;11.48;;;8.70;;
22843;SDS011;11588;51.178;4.852;2023-02-28T06:53:36;13.60;;;8.30;;
22843;SDS011;11588;51.178;4.852;2023-02-28T06:56:04;11.00;;;7.78;;
22843;SDS011;11588;51.178;4.852;2023-02-28T06:58:31;13.45;;;8.90;;
22843;SDS011;11588;51.178;4.852;2023-02-28T07:00:57;12.43;;;8.75;;
22843;SDS011;11588;51.178;4.852;2023-02-28T07:03:24;10.52;;;8.27;;
22843;SDS011;11588;51.178;4.852;2023-02-28T07:05:50;15.43;;;8.35;;
22843;SDS011;11588;51.178;4.852;2023-02-28T07:08:16;14.45;;;8.50;;
22843;SDS011;11588;51.178;4.852;2023-02-28T07:10:44;17.05;;;8.27;;
22843;SDS011;11588;51.178;4.852;2023-02-28T07:13:11;11.60;;;7.57;;
22843;SDS011;11588;51.178;4.852;2023-02-28T07:15:38;13.27;;;8.35;;
22843;SDS011;11588;51.178;4.852;2023-02-28T07:18:04;13.57;;;8.27;;
22843;SDS011;11588;51.178;4.852;2023-02-28T07:20:30;11.98;;;8.68;;
22843;SDS011;11588;51.178;4.852;2023-02-28T07:22:56;11.90;;;8.50;;
22843;SDS011;11588;51.178;4.852;2023-02-28T07:25:23;12.93;;;8.25;;
22843;SDS011;11588;51.178;4.852;2023-02-28T07:27:50;13.60;;;8.02;;
22843;SDS011;11588;51.178;4.852;2023-02-28T07:30:17;13.70;;;8.23;;
22843;SDS011;11588;51.178;4.852;2023-02-28T07:32:43;15.60;;;8.32;;
22843;SDS011;11588;51.178;4.852;2023-02-28T07:35:09;13.13;;;8.18;;
22843;SDS011;11588;51.178;4.852;2023-02-28T07:37:36;10.65;;;8.15;;
22843;SDS011;11588;51.178;4.852;2023-02-28T07:40:04;14.32;;;8.25;;
22843;SDS011;11588;51.178;4.852;2023-02-28T07:42:32;10.65;;;7.55;;
22843;SDS011;11588;51.178;4.852;2023-02-28T07:44:59;13.38;;;8.65;;
22843;SDS011;11588;51.178;4.852;2023-02-28T07:47:28;13.60;;;8.82;;
22843;SDS011;11588;51.178;4.852;2023-02-28T07:49:57;12.82;;;8.70;;
22843;SDS011;11588;51.178;4.852;2023-02-28T07:52:24;13.30;;;7.53;;
22843;SDS011;11588;51.178;4.852;2023-02-28T07:54:50;13.68;;;8.80;;
22843;SDS011;11588;51.178;4.852;2023-02-28T07:57:17;11.98;;;7.43;;
22843;SDS011;11588;51.178;4.852;2023-02-28T07:59:43;11.85;;;7.55;;
22843;SDS011;11588;51.178;4.852;2023-02-28T08:02:12;9.95;;;7.43;;
22843;SDS011;11588;51.178;4.852;2023-02-28T08:04:39;11.68;;;7.53;;
22843;SDS011;11588;51.178;4.852;2023-02-28T08:07:05;9.50;;;7.13;;
22843;SDS011;11588;51.178;4.852;2023-02-28T08:09:32;10.60;;;6.57;;
22843;SDS011;11588;51.178;4.852;2023-02-28T08:11:58;8.23;;;6.15;;
22843;SDS011;11588;51.178;4.852;2023-02-28T08:14:26;13.20;;;6.93;;
22843;SDS011;11588;51.178;4.852;2023-02-28T08:16:52;10.43;;;6.38;;
22843;SDS011;11588;51.178;4.852;2023-02-28T08:19:18;10.07;;;6.38;;
22843;SDS011;11588;51.178;4.852;2023-02-28T08:21:44;9.52;;;6.47;;
22843;SDS011;11588;51.178;4.852;2023-02-28T08:24:11;9.65;;;5.80;;
22843;SDS011;11588;51.178;4.852;2023-02-28T08:26:37;10.15;;;6.57;;
22843;SDS011;11588;51.178;4.852;2023-02-28T08:29:05;10.68;;;6.13;;
22843;SDS011;11588;51.178;4.852;2023-02-28T08:31:31;7.45;;;5.57;;
22843;SDS011;11588;51.178;4.852;2023-02-28T08:33:58;8.70;;;5.22;;
22843;SDS011;11588;51.178;4.852;2023-02-28T08:36:25;8.10;;;5.60;;
22843;SDS011;11588;51.178;4.852;2023-02-28T08:38:54;6.30;;;4.32;;
22843;SDS011;11588;51.178;4.852;2023-02-28T08:41:22;7.78;;;4.82;;
22843;SDS011;11588;51.178;4.852;2023-02-28T08:43:50;7.00;;;4.57;;
22843;SDS011;11588;51.178;4.852;2023-02-28T08:46:15;6.18;;;4.35;;
22843;SDS011;11588;51.178;4.852;2023-02-28T08:48:41;7.03;;;4.55;;
22843;SDS011;11588;51.178;4.852;2023-02-28T08:51:10;11.00;;;4.35;;
22843;SDS011;11588;51.178;4.852;2023-02-28T08:53:36;5.63;;;3.97;;
22843;SDS011;11588;51.178;4.852;2023-02-28T08:56:04;6.82;;;3.95;;
22843;SDS011;11588;51.178;4.852;2023-02-28T08:58:30;6.25;;;3.80;;
22843;SDS011;11588;51.178;4.852;2023-02-28T09:00:57;8.07;;;3.80;;
22843;SDS011;11588;51.178;4.852;2023-02-28T09:03:25;9.05;;;4.13;;
22843;SDS011;11588;51.178;4.852;2023-02-28T09:05:57;5.50;;;3.80;;
22843;SDS011;11588;51.178;4.852;2023-02-28T09:08:24;7.67;;;3.77;;
22843;SDS011;11588;51.178;4.852;2023-02-28T09:10:51;6.55;;;3.90;;
22843;SDS011;11588;51.178;4.852;2023-02-28T09:13:18;7.50;;;3.92;;
22843;SDS011;11588;51.178;4.852;2023-02-28T09:15:44;5.70;;;3.40;;
22843;SDS011;11588;51.178;4.852;2023-02-28T09:18:11;7.07;;;3.08;;
22843;SDS011;11588;51.178;4.852;2023-02-28T09:20:38;6.18;;;3.25;;
22843;SDS011;11588;51.178;4.852;2023-02-28T09:23:06;6.22;;;3.30;;
22843;SDS011;11588;51.178;4.852;2023-02-28T09:25:32;11.13;;;4.00;;
22843;SDS011;11588;51.178;4.852;2023-02-28T09:27:58;4.90;;;3.58;;
22843;SDS011;11588;51.178;4.852;2023-02-28T09:30:25;5.63;;;3.25;;
22843;SDS011;11588;51.178;4.852;2023-02-28T09:32:51;4.40;;;3.42;;
22843;SDS011;11588;51.178;4.852;2023-02-28T09:35:18;6.53;;;3.85;;
22843;SDS011;11588;51.178;4.852;2023-02-28T09:37:44;6.47;;;3.90;;
22843;SDS011;11588;51.178;4.852;2023-02-28T09:40:11;6.60;;;4.07;;
22843;SDS011;11588;51.178;4.852;2023-02-28T09:42:37;4.80;;;3.42;;
22843;SDS011;11588;51.178;4.852;2023-02-28T09:45:06;4.65;;;3.60;;
22843;SDS011;11588;51.178;4.852;2023-02-28T09:47:36;6.78;;;3.63;;
22843;SDS011;11588;51.178;4.852;2023-02-28T09:52:39;4.45;;;3.50;;
22843;SDS011;11588;51.178;4.852;2023-02-28T09:55:18;5.85;;;3.13;;
22843;SDS011;11588;51.178;4.852;2023-02-28T09:57:44;3.60;;;2.60;;
22843;SDS011;11588;51.178;4.852;2023-02-28T10:00:13;3.72;;;2.70;;
22843;SDS011;11588;51.178;4.852;2023-02-28T10:02:46;3.25;;;2.50;;
22843;SDS011;11588;51.178;4.852;2023-02-28T10:05:15;4.75;;;2.75;;
22843;SDS011;11588;51.178;4.852;2023-02-28T10:13:06;2.90;;;2.58;;
22843;SDS011;11588;51.178;4.852;2023-02-28T10:15:41;4.15;;;2.78;;
22843;SDS011;11588;51.178;4.852;2023-02-28T10:18:11;4.10;;;2.30;;
22843;SDS011;11588;51.178;4.852;2023-02-28T10:20:38;4.35;;;2.17;;
22843;SDS011;11588;51.178;4.852;2023-02-28T10:25:39;2.38;;;2.17;;
22843;SDS011;11588;51.178;4.852;2023-02-28T10:30:48;2.60;;;2.20;;
22843;SDS011;11588;51.178;4.852;2023-02-28T10:33:17;2.60;;;1.88;;
22843;SDS011;11588;51.178;4.852;2023-02-28T10:35:45;3.33;;;2.20;;
22843;SDS011;11588;51.178;4.852;2023-02-28T10:38:15;2.63;;;2.08;;
22843;SDS011;11588;51.178;4.852;2023-02-28T10:40:41;3.25;;;1.92;;
22843;SDS011;11588;51.178;4.852;2023-02-28T10:51:01;1.98;;;1.60;;
22843;SDS011;11588;51.178;4.852;2023-02-28T10:53:31;2.85;;;2.08;;
22843;SDS011;11588;51.178;4.852;2023-02-28T10:55:59;3.45;;;1.95;;
22843;SDS011;11588;51.178;4.852;2023-02-28T10:58:29;3.40;;;2.22;;
22843;SDS011;11588;51.178;4.852;2023-02-28T11:00:56;4.47;;;2.17;;
22843;SDS011;11588;51.178;4.852;2023-02-28T11:03:25;4.75;;;2.75;;
22843;SDS011;11588;51.178;4.852;2023-02-28T11:05:50;5.32;;;2.00;;
22843;SDS011;11588;51.178;4.852;2023-02-28T11:08:17;4.10;;;2.10;;
22843;SDS011;11588;51.178;4.852;2023-02-28T11:10:44;2.10;;;1.83;;
22843;SDS011;11588;51.178;4.852;2023-02-28T11:15:51;3.13;;;2.30;;
22843;SDS011;11588;51.178;4.852;2023-02-28T11:18:20;2.63;;;1.90;;
22843;SDS011;11588;51.178;4.852;2023-02-28T11:20:48;2.75;;;1.88;;
22843;SDS011;11588;51.178;4.852;2023-02-28T11:23:15;5.82;;;1.80;;
22843;SDS011;11588;51.178;4.852;2023-02-28T11:25:45;2.72;;;1.73;;
22843;SDS011;11588;51.178;4.852;2023-02-28T11:36:10;4.82;;;1.70;;
22843;SDS011;11588;51.178;4.852;2023-02-28T11:38:36;4.72;;;1.63;;
22843;SDS011;11588;51.178;4.852;2023-02-28T11:46:10;4.55;;;1.73;;
22843;SDS011;11588;51.178;4.852;2023-02-28T11:48:42;5.25;;;1.73;;
22843;SDS011;11588;51.178;4.852;2023-02-28T11:51:22;5.47;;;1.90;;
22843;SDS011;11588;51.178;4.852;2023-02-28T11:56:25;3.92;;;1.95;;
22843;SDS011;11588;51.178;4.852;2023-02-28T11:59:01;2.55;;;1.75;;
22843;SDS011;11588;51.178;4.852;2023-02-28T12:01:36;1.60;;;1.40;;
22843;SDS011;11588;51.178;4.852;2023-02-28T12:06:38;2.13;;;1.52;;
22843;SDS011;11588;51.178;4.852;2023-02-28T12:11:44;2.83;;;1.65;;
22843;SDS011;11588;51.178;4.852;2023-02-28T12:14:22;2.85;;;1.83;;
22843;SDS011;11588;51.178;4.852;2023-02-28T12:19:44;6.30;;;1.88;;
22843;SDS011;11588;51.178;4.852;2023-02-28T12:22:21;4.97;;;2.17;;
22843;SDS011;11588;51.178;4.852;2023-02-28T12:24:55;5.95;;;2.15;;
22843;SDS011;11588;51.178;4.852;2023-02-28T12:27:27;4.13;;;1.75;;
22843;SDS011;11588;51.178;4.852;2023-02-28T12:29:58;7.43;;;1.92;;
22843;SDS011;11588;51.178;4.852;2023-02-28T12:35:04;5.75;;;2.65;;
22843;SDS011;11588;51.178;4.852;2023-02-28T12:40:06;4.82;;;2.05;;
22843;SDS011;11588;51.178;4.852;2023-02-28T12:42:38;7.60;;;2.25;;
22843;SDS011;11588;51.178;4.852;2023-02-28T12:45:10;2.20;;;2.00;;
22843;SDS011;11588;51.178;4.852;2023-02-28T12:47:38;2.90;;;1.98;;
22843;SDS011;11588;51.178;4.852;2023-02-28T12:50:07;2.65;;;2.45;;
22843;SDS011;11588;51.178;4.852;2023-02-28T12:55:13;3.25;;;2.10;;
22843;SDS011;11588;51.178;4.852;2023-02-28T12:57:42;3.88;;;2.22;;
22843;SDS011;11588;51.178;4.852;2023-02-28T13:00:14;3.67;;;2.45;;
22843;SDS011;11588;51.178;4.852;2023-02-28T13:02:46;4.28;;;2.60;;
22843;SDS011;11588;51.178;4.852;2023-02-28T13:05:26;4.43;;;2.58;;
22843;SDS011;11588;51.178;4.852;2023-02-28T13:08:01;3.42;;;2.40;;
22843;SDS011;11588;51.178;4.852;2023-02-28T13:10:38;4.47;;;2.25;;
22843;SDS011;11588;51.178;4.852;2023-02-28T13:13:05;3.15;;;2.72;;
22843;SDS011;11588;51.178;4.852;2023-02-28T13:15:32;9.80;;;2.90;;
22843;SDS011;11588;51.178;4.852;2023-02-28T13:18:04;4.55;;;2.03;;
22843;SDS011;11588;51.178;4.852;2023-02-28T13:20:33;3.80;;;2.75;;
22843;SDS011;11588;51.178;4.852;2023-02-28T13:23:00;3.28;;;2.45;;
22843;SDS011;11588;51.178;4.852;2023-02-28T13:28:02;5.82;;;2.65;;
22843;SDS011;11588;51.178;4.852;2023-02-28T13:33:17;4.80;;;2.92;;
22843;SDS011;11588;51.178;4.852;2023-02-28T13:35:47;4.32;;;2.92;;
22843;SDS011;11588;51.178;4.852;2023-02-28T13:38:17;3.15;;;2.50;;
22843;SDS011;11588;51.178;4.852;2023-02-28T13:40:47;3.53;;;2.97;;
22843;SDS011;11588;51.178;4.852;2023-02-28T13:43:16;5.63;;;2.80;;
22843;SDS011;11588;51.178;4.852;2023-02-28T13:46:03;4.13;;;2.70;;
22843;SDS011;11588;51.178;4.852;2023-02-28T13:48:29;3.67;;;3.00;;
22843;SDS011;11588;51.178;4.852;2023-02-28T13:50:55;3.40;;;2.80;;
22843;SDS011;11588;51.178;4.852;2023-02-28T13:53:26;3.58;;;3.20;;
22843;SDS011;11588;51.178;4.852;2023-02-28T13:56:03;3.67;;;2.97;;
22843;SDS011;11588;51.178;4.852;2023-02-28T14:01:08;5.43;;;3.17;;
22843;SDS011;11588;51.178;4.852;2023-02-28T14:03:41;5.25;;;3.60;;
22843;SDS011;11588;51.178;4.852;2023-02-28T14:08:47;4.28;;;2.92;;
22843;SDS011;11588;51.178;4.852;2023-02-28T14:13:54;3.67;;;2.88;;
22843;SDS011;11588;51.178;4.852;2023-02-28T14:16:21;4.57;;;3.20;;
22843;SDS011;11588;51.178;4.852;2023-02-28T14:18:48;3.58;;;2.60;;
22843;SDS011;11588;51.178;4.852;2023-02-28T14:24:06;6.30;;;3.08;;
22843;SDS011;11588;51.178;4.852;2023-02-28T14:29:19;4.90;;;2.97;;
22843;SDS011;11588;51.178;4.852;2023-02-28T14:31:52;3.47;;;2.75;;
22843;SDS011;11588;51.178;4.852;2023-02-28T14:34:25;3.92;;;3.13;;
22843;SDS011;11588;51.178;4.852;2023-02-28T14:36:52;4.35;;;3.03;;
22843;SDS011;11588;51.178;4.852;2023-02-28T14:39:22;4.95;;;3.47;;
22843;SDS011;11588;51.178;4.852;2023-02-28T14:41:48;4.97;;;3.28;;
22843;SDS011;11588;51.178;4.852;2023-02-28T14:46:52;5.90;;;3.00;;
22843;SDS011;11588;51.178;4.852;2023-02-28T14:54:27;6.10;;;3.08;;
22843;SDS011;11588;51.178;4.852;2023-02-28T14:56:54;4.35;;;2.95;;
22843;SDS011;11588;51.178;4.852;2023-02-28T14:59:23;4.75;;;3.58;;
22843;SDS011;11588;51.178;4.852;2023-02-28T15:01:50;6.20;;;3.10;;
22843;SDS011;11588;51.178;4.852;2023-02-28T15:07:06;4.60;;;3.05;;
22843;SDS011;11588;51.178;4.852;2023-02-28T15:09:33;4.75;;;3.53;;
22843;SDS011;11588;51.178;4.852;2023-02-28T15:12:01;4.57;;;3.20;;
22843;SDS011;11588;51.178;4.852;2023-02-28T15:14:27;5.47;;;3.63;;
22843;SDS011;11588;51.178;4.852;2023-02-28T15:16:56;3.75;;;3.33;;
22843;SDS011;11588;51.178;4.852;2023-02-28T15:21:58;7.43;;;3.65;;
22843;SDS011;11588;51.178;4.852;2023-02-28T15:24:30;4.45;;;3.35;;
22843;SDS011;11588;51.178;4.852;2023-02-28T15:26:59;8.20;;;4.07;;
22843;SDS011;11588;51.178;4.852;2023-02-28T15:29:27;4.50;;;3.33;;
22843;SDS011;11588;51.178;4.852;2023-02-28T15:31:56;4.05;;;3.63;;
22843;SDS011;11588;51.178;4.852;2023-02-28T15:34:29;4.75;;;3.42;;
22843;SDS011;11588;51.178;4.852;2023-02-28T15:37:00;4.85;;;3.35;;
22843;SDS011;11588;51.178;4.852;2023-02-28T15:39:28;5.18;;;3.40;;
22843;SDS011;11588;51.178;4.852;2023-02-28T15:44:33;4.22;;;3.25;;
22843;SDS011;11588;51.178;4.852;2023-02-28T15:47:01;4.88;;;3.60;;
22843;SDS011;11588;51.178;4.852;2023-02-28T15:49:27;4.50;;;3.53;;
22843;SDS011;11588;51.178;4.852;2023-02-28T15:51:53;5.20;;;3.75;;
22843;SDS011;11588;51.178;4.852;2023-02-28T15:54:23;5.65;;;3.38;;
22843;SDS011;11588;51.178;4.852;2023-02-28T15:56:51;9.10;;;3.63;;
22843;SDS011;11588;51.178;4.852;2023-02-28T15:59:18;7.78;;;3.72;;
22843;SDS011;11588;51.178;4.852;2023-02-28T16:01:45;4.47;;;3.50;;
22843;SDS011;11588;51.178;4.852;2023-02-28T16:04:13;3.80;;;3.33;;
22843;SDS011;11588;51.178;4.852;2023-02-28T16:06:40;4.95;;;3.13;;
22843;SDS011;11588;51.178;4.852;2023-02-28T16:09:09;4.10;;;3.28;;
22843;SDS011;11588;51.178;4.852;2023-02-28T16:11:38;5.10;;;3.30;;
22843;SDS011;11588;51.178;4.852;2023-02-28T16:14:09;4.97;;;3.75;;
22843;SDS011;11588;51.178;4.852;2023-02-28T16:16:41;6.05;;;3.60;;
22843;SDS011;11588;51.178;4.852;2023-02-28T16:19:08;6.30;;;3.80;;
22843;SDS011;11588;51.178;4.852;2023-02-28T16:21:34;5.88;;;3.67;;
22843;SDS011;11588;51.178;4.852;2023-02-28T16:24:00;6.40;;;3.85;;
22843;SDS011;11588;51.178;4.852;2023-02-28T16:26:26;4.18;;;3.33;;
22843;SDS011;11588;51.178;4.852;2023-02-28T16:28:54;5.72;;;3.50;;
22843;SDS011;11588;51.178;4.852;2023-02-28T16:31:20;4.53;;;3.47;;
22843;SDS011;11588;51.178;4.852;2023-02-28T16:33:48;5.40;;;3.47;;
22843;SDS011;11588;51.178;4.852;2023-02-28T16:36:16;4.85;;;3.85;;
22843;SDS011;11588;51.178;4.852;2023-02-28T16:38:41;7.43;;;3.88;;